sensor_id;sensor_type;location;lat;lon;timestamp;P1;durP1;ratioP1;P2;durP2;ratioP2
71566;SDS011;59403;47.456;19.120;2023-08-31T00:02:22;7.72;;;5.82;;
71566;SDS011;59403;47.456;19.120;2023-08-31T00:04:50;8.47;;;5.80;;
71566;SDS011;59403;47.456;19.120;2023-08-31T00:07:20;9.75;;;5.90;;
71566;SDS011;59403;47.456;19.120;2023-08-31T00:09:47;7.72;;;5.80;;
71566;SDS011;59403;47.456;19.120;2023-08-31T00:12:15;10.00;;;6.12;;
71566;SDS011;59403;47.456;19.120;2023-08-31T00:14:41;8.75;;;6.20;;
71566;SDS011;59403;47.456;19.120;2023-08-31T00:17:08;8.93;;;5.97;;
71566;SDS011;59403;47.456;19.120;2023-08-31T00:19:35;8.75;;;5.80;;
71566;SDS011;59403;47.456;19.120;2023-08-31T00:22:02;7.43;;;5.68;;
71566;SDS011;59403;47.456;19.120;2023-08-31T00:24:30;9.35;;;5.70;;
71566;SDS011;59403;47.456;19.120;2023-08-31T00:26:58;7.62;;;5.55;;
71566;SDS011;59403;47.456;19.120;2023-08-31T00:29:25;7.50;;;5.40;;
71566;SDS011;59403;47.456;19.120;2023-08-31T00:31:52;8.75;;;5.78;;
71566;SDS011;59403;47.456;19.120;2023-08-31T00:34:20;8.82;;;6.00;;
71566;SDS011;59403;47.456;19.120;2023-08-31T00:36:47;8.75;;;5.70;;
71566;SDS011;59403;47.456;19.120;2023-08-31T00:39:14;7.15;;;5.40;;
71566;SDS011;59403;47.456;19.120;2023-08-31T00:41:47;10.30;;;5.60;;
71566;SDS011;59403;47.456;19.120;2023-08-31T00:44:15;8.32;;;4.87;;
71566;SDS011;59403;47.456;19.120;2023-08-31T00:46:42;7.78;;;5.28;;
71566;SDS011;59403;47.456;19.120;2023-08-31T00:49:09;7.87;;;5.50;;
71566;SDS011;59403;47.456;19.120;2023-08-31T00:51:36;10.48;;;5.90;;
71566;SDS011;59403;47.456;19.120;2023-08-31T00:54:03;8.47;;;5.27;;
71566;SDS011;59403;47.456;19.120;2023-08-31T00:56:31;7.68;;;5.60;;
71566;SDS011;59403;47.456;19.120;2023-08-31T00:58:59;7.25;;;5.10;;
71566;SDS011;59403;47.456;19.120;2023-08-31T01:04:24;6.70;;;4.87;;
71566;SDS011;59403;47.456;19.120;2023-08-31T01:07:03;8.03;;;5.10;;
71566;SDS011;59403;47.456;19.120;2023-08-31T01:09:39;6.45;;;4.70;;
71566;SDS011;59403;47.456;19.120;2023-08-31T01:12:11;8.13;;;4.75;;
71566;SDS011;59403;47.456;19.120;2023-08-31T01:14:46;6.50;;;4.50;;
71566;SDS011;59403;47.456;19.120;2023-08-31T01:17:20;6.37;;;4.90;;
71566;SDS011;59403;47.456;19.120;2023-08-31T01:19:51;6.33;;;4.57;;
71566;SDS011;59403;47.456;19.120;2023-08-31T01:22:24;6.90;;;4.72;;
71566;SDS011;59403;47.456;19.120;2023-08-31T01:24:57;6.20;;;5.07;;
71566;SDS011;59403;47.456;19.120;2023-08-31T01:27:29;6.43;;;4.78;;
71566;SDS011;59403;47.456;19.120;2023-08-31T01:29:56;7.95;;;4.90;;
71566;SDS011;59403;47.456;19.120;2023-08-31T01:32:23;8.63;;;4.80;;
71566;SDS011;59403;47.456;19.120;2023-08-31T01:34:50;7.00;;;4.87;;
71566;SDS011;59403;47.456;19.120;2023-08-31T01:37:23;6.35;;;5.07;;
71566;SDS011;59403;47.456;19.120;2023-08-31T01:39:55;7.65;;;5.00;;
71566;SDS011;59403;47.456;19.120;2023-08-31T01:42:29;7.97;;;5.20;;
71566;SDS011;59403;47.456;19.120;2023-08-31T01:44:57;6.07;;;4.80;;
71566;SDS011;59403;47.456;19.120;2023-08-31T01:47:26;5.45;;;4.30;;
71566;SDS011;59403;47.456;19.120;2023-08-31T01:49:54;6.60;;;4.78;;
71566;SDS011;59403;47.456;19.120;2023-08-31T01:52:21;5.57;;;4.95;;
71566;SDS011;59403;47.456;19.120;2023-08-31T01:54:48;6.68;;;4.20;;
71566;SDS011;59403;47.456;19.120;2023-08-31T01:57:16;6.43;;;4.37;;
71566;SDS011;59403;47.456;19.120;2023-08-31T01:59:43;6.68;;;4.50;;
71566;SDS011;59403;47.456;19.120;2023-08-31T02:02:10;6.90;;;4.37;;
71566;SDS011;59403;47.456;19.120;2023-08-31T02:04:36;8.68;;;4.50;;
71566;SDS011;59403;47.456;19.120;2023-08-31T02:07:03;5.45;;;4.05;;
71566;SDS011;59403;47.456;19.120;2023-08-31T02:09:30;5.07;;;4.07;;
71566;SDS011;59403;47.456;19.120;2023-08-31T02:11:57;6.40;;;4.00;;
71566;SDS011;59403;47.456;19.120;2023-08-31T02:14:26;6.10;;;4.12;;
71566;SDS011;59403;47.456;19.120;2023-08-31T02:16:52;5.85;;;3.67;;
71566;SDS011;59403;47.456;19.120;2023-08-31T02:19:19;5.47;;;3.97;;
71566;SDS011;59403;47.456;19.120;2023-08-31T02:21:46;4.73;;;3.70;;
71566;SDS011;59403;47.456;19.120;2023-08-31T02:24:14;5.87;;;4.00;;
71566;SDS011;59403;47.456;19.120;2023-08-31T02:26:41;5.95;;;3.95;;
71566;SDS011;59403;47.456;19.120;2023-08-31T02:29:07;5.45;;;3.80;;
71566;SDS011;59403;47.456;19.120;2023-08-31T02:31:36;5.95;;;4.00;;
71566;SDS011;59403;47.456;19.120;2023-08-31T02:34:03;7.43;;;4.00;;
71566;SDS011;59403;47.456;19.120;2023-08-31T02:36:30;5.55;;;4.10;;
71566;SDS011;59403;47.456;19.120;2023-08-31T02:38:57;6.85;;;4.05;;
71566;SDS011;59403;47.456;19.120;2023-08-31T02:41:24;6.75;;;4.18;;
71566;SDS011;59403;47.456;19.120;2023-08-31T02:43:51;6.75;;;3.95;;
71566;SDS011;59403;47.456;19.120;2023-08-31T02:46:18;5.77;;;4.23;;
71566;SDS011;59403;47.456;19.120;2023-08-31T02:48:46;5.72;;;3.78;;
71566;SDS011;59403;47.456;19.120;2023-08-31T02:51:13;6.62;;;4.28;;
71566;SDS011;59403;47.456;19.120;2023-08-31T02:53:40;5.90;;;4.30;;
71566;SDS011;59403;47.456;19.120;2023-08-31T02:56:07;5.28;;;3.80;;
71566;SDS011;59403;47.456;19.120;2023-08-31T02:58:34;5.67;;;4.27;;
71566;SDS011;59403;47.456;19.120;2023-08-31T03:01:07;5.30;;;3.58;;
71566;SDS011;59403;47.456;19.120;2023-08-31T03:03:36;6.28;;;3.87;;
71566;SDS011;59403;47.456;19.120;2023-08-31T03:06:05;5.85;;;4.25;;
71566;SDS011;59403;47.456;19.120;2023-08-31T03:08:32;6.00;;;3.87;;
71566;SDS011;59403;47.456;19.120;2023-08-31T03:10:59;6.37;;;3.90;;
71566;SDS011;59403;47.456;19.120;2023-08-31T03:13:26;5.75;;;3.80;;
71566;SDS011;59403;47.456;19.120;2023-08-31T03:15:53;6.93;;;3.92;;
71566;SDS011;59403;47.456;19.120;2023-08-31T03:18:21;5.47;;;3.80;;
71566;SDS011;59403;47.456;19.120;2023-08-31T03:20:48;7.15;;;4.22;;
71566;SDS011;59403;47.456;19.120;2023-08-31T03:23:16;6.10;;;4.00;;
71566;SDS011;59403;47.456;19.120;2023-08-31T03:25:43;6.60;;;3.72;;
71566;SDS011;59403;47.456;19.120;2023-08-31T03:28:10;5.72;;;4.22;;
71566;SDS011;59403;47.456;19.120;2023-08-31T03:30:37;8.25;;;4.12;;
71566;SDS011;59403;47.456;19.120;2023-08-31T03:33:04;5.97;;;3.78;;
71566;SDS011;59403;47.456;19.120;2023-08-31T03:35:31;8.87;;;3.50;;
71566;SDS011;59403;47.456;19.120;2023-08-31T03:37:58;7.40;;;3.70;;
71566;SDS011;59403;47.456;19.120;2023-08-31T03:40:27;5.50;;;3.70;;
71566;SDS011;59403;47.456;19.120;2023-08-31T03:42:54;8.13;;;4.03;;
71566;SDS011;59403;47.456;19.120;2023-08-31T03:45:21;6.30;;;3.80;;
71566;SDS011;59403;47.456;19.120;2023-08-31T03:47:49;5.27;;;3.63;;
71566;SDS011;59403;47.456;19.120;2023-08-31T03:50:16;7.15;;;3.85;;
71566;SDS011;59403;47.456;19.120;2023-08-31T03:52:43;5.47;;;3.97;;
71566;SDS011;59403;47.456;19.120;2023-08-31T03:55:10;6.05;;;3.90;;
71566;SDS011;59403;47.456;19.120;2023-08-31T03:57:38;5.07;;;3.95;;
71566;SDS011;59403;47.456;19.120;2023-08-31T04:00:06;5.80;;;3.63;;
71566;SDS011;59403;47.456;19.120;2023-08-31T04:02:34;5.93;;;3.58;;
71566;SDS011;59403;47.456;19.120;2023-08-31T04:05:01;5.90;;;3.75;;
71566;SDS011;59403;47.456;19.120;2023-08-31T04:07:30;5.00;;;3.58;;
71566;SDS011;59403;47.456;19.120;2023-08-31T04:09:57;5.40;;;3.95;;
71566;SDS011;59403;47.456;19.120;2023-08-31T04:12:24;7.87;;;3.57;;
71566;SDS011;59403;47.456;19.120;2023-08-31T04:14:52;6.15;;;3.47;;
71566;SDS011;59403;47.456;19.120;2023-08-31T04:17:19;6.15;;;4.20;;
71566;SDS011;59403;47.456;19.120;2023-08-31T04:19:45;6.68;;;4.03;;
71566;SDS011;59403;47.456;19.120;2023-08-31T04:22:12;11.95;;;3.95;;
71566;SDS011;59403;47.456;19.120;2023-08-31T04:24:39;9.15;;;4.12;;
71566;SDS011;59403;47.456;19.120;2023-08-31T04:27:05;7.20;;;4.30;;
71566;SDS011;59403;47.456;19.120;2023-08-31T04:29:33;6.25;;;3.95;;
71566;SDS011;59403;47.456;19.120;2023-08-31T04:32:02;7.28;;;4.00;;
71566;SDS011;59403;47.456;19.120;2023-08-31T04:34:29;6.05;;;3.78;;
71566;SDS011;59403;47.456;19.120;2023-08-31T04:36:56;6.20;;;4.35;;
71566;SDS011;59403;47.456;19.120;2023-08-31T04:39:23;7.43;;;4.65;;
71566;SDS011;59403;47.456;19.120;2023-08-31T04:41:51;6.80;;;4.15;;
71566;SDS011;59403;47.456;19.120;2023-08-31T04:44:19;6.97;;;4.35;;
71566;SDS011;59403;47.456;19.120;2023-08-31T04:46:45;6.78;;;4.22;;
71566;SDS011;59403;47.456;19.120;2023-08-31T04:49:14;6.28;;;4.45;;
71566;SDS011;59403;47.456;19.120;2023-08-31T04:51:43;9.15;;;4.80;;
71566;SDS011;59403;47.456;19.120;2023-08-31T04:54:11;6.25;;;4.25;;
71566;SDS011;59403;47.456;19.120;2023-08-31T04:56:38;8.75;;;5.07;;
71566;SDS011;59403;47.456;19.120;2023-08-31T04:59:05;8.60;;;4.90;;
71566;SDS011;59403;47.456;19.120;2023-08-31T05:01:32;7.03;;;4.80;;
71566;SDS011;59403;47.456;19.120;2023-08-31T05:03:58;6.07;;;4.53;;
71566;SDS011;59403;47.456;19.120;2023-08-31T05:06:27;6.28;;;4.50;;
71566;SDS011;59403;47.456;19.120;2023-08-31T05:08:53;7.03;;;4.40;;
71566;SDS011;59403;47.456;19.120;2023-08-31T05:11:22;8.32;;;4.55;;
71566;SDS011;59403;47.456;19.120;2023-08-31T05:13:48;6.53;;;4.65;;
71566;SDS011;59403;47.456;19.120;2023-08-31T05:16:15;7.32;;;4.15;;
71566;SDS011;59403;47.456;19.120;2023-08-31T05:18:42;8.93;;;4.40;;
71566;SDS011;59403;47.456;19.120;2023-08-31T05:21:09;6.37;;;5.18;;
71566;SDS011;59403;47.456;19.120;2023-08-31T05:23:37;7.80;;;4.30;;
71566;SDS011;59403;47.456;19.120;2023-08-31T05:26:04;5.93;;;4.43;;
71566;SDS011;59403;47.456;19.120;2023-08-31T05:28:31;8.80;;;4.78;;
71566;SDS011;59403;47.456;19.120;2023-08-31T05:31:00;6.72;;;5.20;;
71566;SDS011;59403;47.456;19.120;2023-08-31T05:33:28;7.47;;;4.57;;
71566;SDS011;59403;47.456;19.120;2023-08-31T05:35:59;6.35;;;4.10;;
71566;SDS011;59403;47.456;19.120;2023-08-31T05:38:28;9.55;;;4.68;;
71566;SDS011;59403;47.456;19.120;2023-08-31T05:41:04;6.55;;;3.90;;
71566;SDS011;59403;47.456;19.120;2023-08-31T05:43:32;5.45;;;4.20;;
71566;SDS011;59403;47.456;19.120;2023-08-31T05:45:59;6.28;;;4.60;;
71566;SDS011;59403;47.456;19.120;2023-08-31T05:48:26;4.80;;;3.78;;
71566;SDS011;59403;47.456;19.120;2023-08-31T05:50:53;6.35;;;3.75;;
71566;SDS011;59403;47.456;19.120;2023-08-31T05:53:21;8.45;;;4.50;;
71566;SDS011;59403;47.456;19.120;2023-08-31T05:55:47;5.80;;;4.57;;
71566;SDS011;59403;47.456;19.120;2023-08-31T05:58:16;8.13;;;4.50;;
71566;SDS011;59403;47.456;19.120;2023-08-31T06:00:43;5.28;;;3.20;;
71566;SDS011;59403;47.456;19.120;2023-08-31T06:03:10;5.55;;;3.67;;
71566;SDS011;59403;47.456;19.120;2023-08-31T06:05:36;6.25;;;3.33;;
71566;SDS011;59403;47.456;19.120;2023-08-31T06:08:04;5.25;;;2.80;;
71566;SDS011;59403;47.456;19.120;2023-08-31T06:10:31;4.03;;;2.47;;
71566;SDS011;59403;47.456;19.120;2023-08-31T06:12:58;3.30;;;2.55;;
71566;SDS011;59403;47.456;19.120;2023-08-31T06:15:26;4.20;;;2.47;;
71566;SDS011;59403;47.456;19.120;2023-08-31T06:17:56;3.22;;;2.40;;
71566;SDS011;59403;47.456;19.120;2023-08-31T06:20:23;6.20;;;2.40;;
71566;SDS011;59403;47.456;19.120;2023-08-31T06:22:50;3.60;;;2.57;;
71566;SDS011;59403;47.456;19.120;2023-08-31T06:25:17;6.65;;;2.58;;
71566;SDS011;59403;47.456;19.120;2023-08-31T06:27:44;4.30;;;2.72;;
71566;SDS011;59403;47.456;19.120;2023-08-31T06:30:11;5.25;;;3.30;;
71566;SDS011;59403;47.456;19.120;2023-08-31T06:32:42;4.78;;;2.83;;
71566;SDS011;59403;47.456;19.120;2023-08-31T06:35:10;5.83;;;2.73;;
71566;SDS011;59403;47.456;19.120;2023-08-31T06:37:38;4.78;;;2.92;;
71566;SDS011;59403;47.456;19.120;2023-08-31T06:40:05;5.60;;;2.72;;
71566;SDS011;59403;47.456;19.120;2023-08-31T06:42:34;5.35;;;2.30;;
71566;SDS011;59403;47.456;19.120;2023-08-31T06:45:01;5.57;;;2.78;;
71566;SDS011;59403;47.456;19.120;2023-08-31T06:47:28;3.90;;;2.90;;
71566;SDS011;59403;47.456;19.120;2023-08-31T06:49:56;3.67;;;2.30;;
71566;SDS011;59403;47.456;19.120;2023-08-31T06:52:24;3.42;;;2.47;;
71566;SDS011;59403;47.456;19.120;2023-08-31T06:54:51;3.58;;;2.60;;
71566;SDS011;59403;47.456;19.120;2023-08-31T06:57:20;3.40;;;2.40;;
71566;SDS011;59403;47.456;19.120;2023-08-31T06:59:48;4.10;;;2.60;;
71566;SDS011;59403;47.456;19.120;2023-08-31T07:02:15;2.85;;;2.53;;
71566;SDS011;59403;47.456;19.120;2023-08-31T07:04:42;3.25;;;2.60;;
71566;SDS011;59403;47.456;19.120;2023-08-31T07:07:11;2.90;;;2.25;;
71566;SDS011;59403;47.456;19.120;2023-08-31T07:09:39;3.47;;;2.45;;
71566;SDS011;59403;47.456;19.120;2023-08-31T07:12:06;3.37;;;2.57;;
71566;SDS011;59403;47.456;19.120;2023-08-31T07:14:33;3.17;;;2.30;;
71566;SDS011;59403;47.456;19.120;2023-08-31T07:17:00;3.75;;;2.85;;
71566;SDS011;59403;47.456;19.120;2023-08-31T07:19:27;4.80;;;2.12;;
71566;SDS011;59403;47.456;19.120;2023-08-31T07:21:54;3.75;;;2.70;;
71566;SDS011;59403;47.456;19.120;2023-08-31T07:24:22;2.90;;;2.27;;
71566;SDS011;59403;47.456;19.120;2023-08-31T07:26:50;3.72;;;2.50;;
71566;SDS011;59403;47.456;19.120;2023-08-31T07:29:17;4.35;;;3.10;;
71566;SDS011;59403;47.456;19.120;2023-08-31T07:31:44;6.07;;;3.72;;
71566;SDS011;59403;47.456;19.120;2023-08-31T07:34:11;5.78;;;3.55;;
71566;SDS011;59403;47.456;19.120;2023-08-31T07:36:40;5.63;;;4.10;;
71566;SDS011;59403;47.456;19.120;2023-08-31T07:39:07;4.43;;;3.22;;
71566;SDS011;59403;47.456;19.120;2023-08-31T07:41:35;5.30;;;3.67;;
71566;SDS011;59403;47.456;19.120;2023-08-31T07:44:04;4.40;;;3.00;;
71566;SDS011;59403;47.456;19.120;2023-08-31T07:46:32;5.78;;;3.62;;
71566;SDS011;59403;47.456;19.120;2023-08-31T07:48:58;4.50;;;3.33;;
71566;SDS011;59403;47.456;19.120;2023-08-31T07:51:25;6.28;;;3.67;;
71566;SDS011;59403;47.456;19.120;2023-08-31T07:53:52;5.47;;;3.40;;
71566;SDS011;59403;47.456;19.120;2023-08-31T07:56:19;4.43;;;2.87;;
71566;SDS011;59403;47.456;19.120;2023-08-31T07:58:47;5.43;;;3.12;;
71566;SDS011;59403;47.456;19.120;2023-08-31T08:01:14;3.47;;;2.70;;
71566;SDS011;59403;47.456;19.120;2023-08-31T08:03:42;5.32;;;3.05;;
71566;SDS011;59403;47.456;19.120;2023-08-31T08:06:09;4.18;;;2.97;;
71566;SDS011;59403;47.456;19.120;2023-08-31T08:08:36;3.97;;;3.25;;
71566;SDS011;59403;47.456;19.120;2023-08-31T08:11:04;3.58;;;3.08;;
71566;SDS011;59403;47.456;19.120;2023-08-31T08:13:31;5.67;;;3.27;;
71566;SDS011;59403;47.456;19.120;2023-08-31T08:15:59;4.70;;;3.75;;
71566;SDS011;59403;47.456;19.120;2023-08-31T08:18:26;3.67;;;3.17;;
71566;SDS011;59403;47.456;19.120;2023-08-31T08:20:59;6.07;;;3.60;;
71566;SDS011;59403;47.456;19.120;2023-08-31T08:23:26;3.53;;;2.87;;
71566;SDS011;59403;47.456;19.120;2023-08-31T08:25:53;5.30;;;3.67;;
71566;SDS011;59403;47.456;19.120;2023-08-31T08:28:20;4.50;;;3.67;;
71566;SDS011;59403;47.456;19.120;2023-08-31T08:30:47;3.37;;;3.08;;
71566;SDS011;59403;47.456;19.120;2023-08-31T08:33:16;5.82;;;3.87;;
71566;SDS011;59403;47.456;19.120;2023-08-31T08:35:43;5.10;;;3.50;;
71566;SDS011;59403;47.456;19.120;2023-08-31T08:38:10;3.80;;;3.40;;
71566;SDS011;59403;47.456;19.120;2023-08-31T08:40:37;4.22;;;3.55;;
71566;SDS011;59403;47.456;19.120;2023-08-31T08:43:05;3.78;;;3.37;;
71566;SDS011;59403;47.456;19.120;2023-08-31T08:45:35;4.00;;;2.85;;
71566;SDS011;59403;47.456;19.120;2023-08-31T08:48:04;5.50;;;2.95;;
71566;SDS011;59403;47.456;19.120;2023-08-31T08:50:44;4.93;;;2.70;;
71566;SDS011;59403;47.456;19.120;2023-08-31T08:53:18;4.30;;;2.42;;
71566;SDS011;59403;47.456;19.120;2023-08-31T08:55:45;3.47;;;2.60;;
71566;SDS011;59403;47.456;19.120;2023-08-31T08:58:12;4.15;;;3.17;;
71566;SDS011;59403;47.456;19.120;2023-08-31T09:00:38;4.68;;;3.30;;
71566;SDS011;59403;47.456;19.120;2023-08-31T09:03:07;4.23;;;3.23;;
71566;SDS011;59403;47.456;19.120;2023-08-31T09:05:33;3.95;;;3.00;;
71566;SDS011;59403;47.456;19.120;2023-08-31T09:08:02;6.30;;;3.40;;
71566;SDS011;59403;47.456;19.120;2023-08-31T09:10:35;4.15;;;2.60;;
71566;SDS011;59403;47.456;19.120;2023-08-31T09:13:05;5.22;;;2.95;;
71566;SDS011;59403;47.456;19.120;2023-08-31T09:15:40;6.90;;;2.50;;
71566;SDS011;59403;47.456;19.120;2023-08-31T09:18:08;4.25;;;2.15;;
71566;SDS011;59403;47.456;19.120;2023-08-31T09:20:43;3.45;;;2.10;;
71566;SDS011;59403;47.456;19.120;2023-08-31T09:23:12;2.65;;;2.30;;
71566;SDS011;59403;47.456;19.120;2023-08-31T09:25:42;2.58;;;2.33;;
71566;SDS011;59403;47.456;19.120;2023-08-31T09:28:10;4.23;;;2.20;;
71566;SDS011;59403;47.456;19.120;2023-08-31T09:30:38;3.30;;;2.00;;
71566;SDS011;59403;47.456;19.120;2023-08-31T09:33:06;2.50;;;2.17;;
71566;SDS011;59403;47.456;19.120;2023-08-31T09:35:38;3.87;;;2.42;;
71566;SDS011;59403;47.456;19.120;2023-08-31T09:38:07;4.60;;;2.30;;
71566;SDS011;59403;47.456;19.120;2023-08-31T09:40:36;2.70;;;1.80;;
71566;SDS011;59403;47.456;19.120;2023-08-31T09:43:03;2.65;;;2.00;;
71566;SDS011;59403;47.456;19.120;2023-08-31T09:45:31;5.25;;;2.30;;
71566;SDS011;59403;47.456;19.120;2023-08-31T09:47:59;2.53;;;2.33;;
71566;SDS011;59403;47.456;19.120;2023-08-31T09:50:28;4.32;;;2.08;;
71566;SDS011;59403;47.456;19.120;2023-08-31T09:52:56;3.50;;;2.10;;
71566;SDS011;59403;47.456;19.120;2023-08-31T09:55:27;2.75;;;1.90;;
71566;SDS011;59403;47.456;19.120;2023-08-31T09:57:56;2.60;;;2.40;;
71566;SDS011;59403;47.456;19.120;2023-08-31T10:00:24;3.03;;;2.00;;
71566;SDS011;59403;47.456;19.120;2023-08-31T10:02:52;4.03;;;2.40;;
71566;SDS011;59403;47.456;19.120;2023-08-31T10:05:22;3.97;;;2.20;;
71566;SDS011;59403;47.456;19.120;2023-08-31T10:07:50;3.17;;;2.40;;
71566;SDS011;59403;47.456;19.120;2023-08-31T10:10:17;3.25;;;2.42;;
71566;SDS011;59403;47.456;19.120;2023-08-31T10:12:45;2.95;;;2.20;;
71566;SDS011;59403;47.456;19.120;2023-08-31T10:15:16;3.80;;;2.50;;
71566;SDS011;59403;47.456;19.120;2023-08-31T10:17:43;3.37;;;2.00;;
71566;SDS011;59403;47.456;19.120;2023-08-31T10:20:11;3.25;;;2.10;;
71566;SDS011;59403;47.456;19.120;2023-08-31T10:22:39;2.37;;;2.17;;
71566;SDS011;59403;47.456;19.120;2023-08-31T10:25:06;3.08;;;2.35;;
71566;SDS011;59403;47.456;19.120;2023-08-31T10:27:37;2.03;;;1.80;;
71566;SDS011;59403;47.456;19.120;2023-08-31T10:30:25;3.60;;;2.20;;
71566;SDS011;59403;47.456;19.120;2023-08-31T10:35:52;2.60;;;2.17;;
71566;SDS011;59403;47.456;19.120;2023-08-31T10:38:26;2.72;;;1.83;;
71566;SDS011;59403;47.456;19.120;2023-08-31T10:43:46;2.70;;;2.00;;
71566;SDS011;59403;47.456;19.120;2023-08-31T10:46:16;3.42;;;2.00;;
71566;SDS011;59403;47.456;19.120;2023-08-31T10:48:54;4.07;;;2.03;;
71566;SDS011;59403;47.456;19.120;2023-08-31T10:51:22;1.80;;;1.55;;
71566;SDS011;59403;47.456;19.120;2023-08-31T10:53:50;2.55;;;1.98;;
71566;SDS011;59403;47.456;19.120;2023-08-31T10:56:17;2.70;;;2.27;;
71566;SDS011;59403;47.456;19.120;2023-08-31T10:58:55;3.42;;;2.17;;
71566;SDS011;59403;47.456;19.120;2023-08-31T11:04:22;2.92;;;2.60;;
71566;SDS011;59403;47.456;19.120;2023-08-31T11:09:40;3.13;;;2.50;;
71566;SDS011;59403;47.456;19.120;2023-08-31T11:12:08;3.03;;;2.60;;
71566;SDS011;59403;47.456;19.120;2023-08-31T11:14:35;3.00;;;2.30;;
71566;SDS011;59403;47.456;19.120;2023-08-31T11:17:04;3.65;;;2.40;;
71566;SDS011;59403;47.456;19.120;2023-08-31T11:19:32;3.30;;;2.37;;
71566;SDS011;59403;47.456;19.120;2023-08-31T11:22:00;3.20;;;2.67;;
71566;SDS011;59403;47.456;19.120;2023-08-31T11:24:28;3.80;;;2.45;;
71566;SDS011;59403;47.456;19.120;2023-08-31T11:26:55;2.58;;;2.10;;
71566;SDS011;59403;47.456;19.120;2023-08-31T11:29:22;3.37;;;2.35;;
71566;SDS011;59403;47.456;19.120;2023-08-31T11:31:49;2.45;;;2.25;;
71566;SDS011;59403;47.456;19.120;2023-08-31T11:34:17;2.73;;;2.40;;
71566;SDS011;59403;47.456;19.120;2023-08-31T11:36:46;5.03;;;2.30;;
71566;SDS011;59403;47.456;19.120;2023-08-31T11:39:13;3.47;;;2.20;;
71566;SDS011;59403;47.456;19.120;2023-08-31T11:41:42;3.33;;;2.50;;
71566;SDS011;59403;47.456;19.120;2023-08-31T11:44:09;4.20;;;2.25;;
71566;SDS011;59403;47.456;19.120;2023-08-31T11:46:36;3.70;;;2.27;;
71566;SDS011;59403;47.456;19.120;2023-08-31T11:49:05;3.05;;;2.10;;
71566;SDS011;59403;47.456;19.120;2023-08-31T11:51:34;2.72;;;2.25;;
71566;SDS011;59403;47.456;19.120;2023-08-31T11:54:02;3.72;;;2.37;;
71566;SDS011;59403;47.456;19.120;2023-08-31T11:56:38;4.03;;;2.42;;
71566;SDS011;59403;47.456;19.120;2023-08-31T11:59:08;2.50;;;2.10;;
71566;SDS011;59403;47.456;19.120;2023-08-31T12:01:40;2.30;;;2.10;;
71566;SDS011;59403;47.456;19.120;2023-08-31T12:04:10;3.95;;;2.20;;
71566;SDS011;59403;47.456;19.120;2023-08-31T12:06:39;3.50;;;2.30;;
71566;SDS011;59403;47.456;19.120;2023-08-31T12:09:07;3.45;;;2.97;;
71566;SDS011;59403;47.456;19.120;2023-08-31T12:11:34;3.47;;;2.60;;
71566;SDS011;59403;47.456;19.120;2023-08-31T12:14:01;3.83;;;2.00;;
71566;SDS011;59403;47.456;19.120;2023-08-31T12:16:33;3.75;;;2.20;;
71566;SDS011;59403;47.456;19.120;2023-08-31T12:19:01;3.58;;;2.00;;
71566;SDS011;59403;47.456;19.120;2023-08-31T12:21:29;2.40;;;2.00;;
71566;SDS011;59403;47.456;19.120;2023-08-31T12:23:58;3.60;;;2.20;;
71566;SDS011;59403;47.456;19.120;2023-08-31T12:26:25;2.85;;;2.37;;
71566;SDS011;59403;47.456;19.120;2023-08-31T12:28:51;3.40;;;3.10;;
71566;SDS011;59403;47.456;19.120;2023-08-31T12:31:18;4.28;;;2.50;;
71566;SDS011;59403;47.456;19.120;2023-08-31T12:33:45;4.20;;;2.60;;
71566;SDS011;59403;47.456;19.120;2023-08-31T12:36:12;3.30;;;2.70;;
71566;SDS011;59403;47.456;19.120;2023-08-31T12:38:39;3.42;;;2.72;;
71566;SDS011;59403;47.456;19.120;2023-08-31T12:41:07;3.05;;;2.45;;
71566;SDS011;59403;47.456;19.120;2023-08-31T12:43:34;3.00;;;2.40;;
71566;SDS011;59403;47.456;19.120;2023-08-31T12:46:01;2.75;;;2.50;;
71566;SDS011;59403;47.456;19.120;2023-08-31T12:48:30;4.93;;;2.67;;
71566;SDS011;59403;47.456;19.120;2023-08-31T12:50:57;3.20;;;2.40;;
71566;SDS011;59403;47.456;19.120;2023-08-31T12:53:24;3.47;;;2.17;;
71566;SDS011;59403;47.456;19.120;2023-08-31T12:55:52;2.30;;;2.10;;
71566;SDS011;59403;47.456;19.120;2023-08-31T12:58:20;3.58;;;2.70;;
71566;SDS011;59403;47.456;19.120;2023-08-31T13:00:48;3.33;;;2.10;;
71566;SDS011;59403;47.456;19.120;2023-08-31T13:03:18;3.95;;;2.50;;
71566;SDS011;59403;47.456;19.120;2023-08-31T13:05:45;2.83;;;2.62;;
71566;SDS011;59403;47.456;19.120;2023-08-31T13:08:12;3.30;;;2.00;;
71566;SDS011;59403;47.456;19.120;2023-08-31T13:10:39;2.42;;;2.22;;
71566;SDS011;59403;47.456;19.120;2023-08-31T13:13:05;2.93;;;2.43;;
71566;SDS011;59403;47.456;19.120;2023-08-31T13:15:34;3.37;;;2.42;;
71566;SDS011;59403;47.456;19.120;2023-08-31T13:18:01;2.95;;;2.28;;
71566;SDS011;59403;47.456;19.120;2023-08-31T13:20:27;3.97;;;2.10;;
71566;SDS011;59403;47.456;19.120;2023-08-31T13:22:55;2.50;;;1.85;;
71566;SDS011;59403;47.456;19.120;2023-08-31T13:25:22;4.40;;;2.10;;
71566;SDS011;59403;47.456;19.120;2023-08-31T13:27:49;3.53;;;1.70;;
71566;SDS011;59403;47.456;19.120;2023-08-31T13:30:16;4.30;;;2.50;;
71566;SDS011;59403;47.456;19.120;2023-08-31T13:32:44;3.80;;;2.45;;
71566;SDS011;59403;47.456;19.120;2023-08-31T13:35:11;3.60;;;2.65;;
71566;SDS011;59403;47.456;19.120;2023-08-31T13:37:37;2.87;;;2.20;;
71566;SDS011;59403;47.456;19.120;2023-08-31T13:40:05;2.58;;;2.00;;
71566;SDS011;59403;47.456;19.120;2023-08-31T13:42:34;3.53;;;2.60;;
71566;SDS011;59403;47.456;19.120;2023-08-31T13:45:04;3.20;;;2.12;;
71566;SDS011;59403;47.456;19.120;2023-08-31T13:47:32;2.60;;;2.20;;
71566;SDS011;59403;47.456;19.120;2023-08-31T13:50:00;2.50;;;2.30;;
71566;SDS011;59403;47.456;19.120;2023-08-31T13:52:27;3.75;;;2.47;;
71566;SDS011;59403;47.456;19.120;2023-08-31T13:54:54;3.37;;;2.50;;
71566;SDS011;59403;47.456;19.120;2023-08-31T13:57:21;2.90;;;2.70;;
71566;SDS011;59403;47.456;19.120;2023-08-31T13:59:48;4.07;;;2.70;;
71566;SDS011;59403;47.456;19.120;2023-08-31T14:02:14;3.63;;;2.27;;
71566;SDS011;59403;47.456;19.120;2023-08-31T14:04:41;2.70;;;2.40;;
71566;SDS011;59403;47.456;19.120;2023-08-31T14:07:09;3.20;;;2.60;;
71566;SDS011;59403;47.456;19.120;2023-08-31T14:09:36;3.55;;;2.62;;
71566;SDS011;59403;47.456;19.120;2023-08-31T14:12:03;5.05;;;2.50;;
71566;SDS011;59403;47.456;19.120;2023-08-31T14:14:30;3.20;;;2.27;;
71566;SDS011;59403;47.456;19.120;2023-08-31T14:16:57;3.33;;;2.80;;
71566;SDS011;59403;47.456;19.120;2023-08-31T14:19:24;3.47;;;2.95;;
71566;SDS011;59403;47.456;19.120;2023-08-31T14:21:51;3.78;;;3.35;;
71566;SDS011;59403;47.456;19.120;2023-08-31T14:24:20;3.03;;;2.65;;
71566;SDS011;59403;47.456;19.120;2023-08-31T14:26:47;4.30;;;2.90;;
71566;SDS011;59403;47.456;19.120;2023-08-31T14:29:14;5.15;;;3.05;;
71566;SDS011;59403;47.456;19.120;2023-08-31T14:31:40;3.03;;;2.72;;
71566;SDS011;59403;47.456;19.120;2023-08-31T14:34:07;5.07;;;2.50;;
71566;SDS011;59403;47.456;19.120;2023-08-31T14:36:34;4.45;;;2.92;;
71566;SDS011;59403;47.456;19.120;2023-08-31T14:39:01;3.53;;;2.03;;
71566;SDS011;59403;47.456;19.120;2023-08-31T14:41:31;4.15;;;2.25;;
71566;SDS011;59403;47.456;19.120;2023-08-31T14:44:00;4.15;;;2.83;;
71566;SDS011;59403;47.456;19.120;2023-08-31T14:46:27;2.72;;;1.87;;
71566;SDS011;59403;47.456;19.120;2023-08-31T14:48:53;3.35;;;2.17;;
71566;SDS011;59403;47.456;19.120;2023-08-31T14:51:20;3.40;;;2.00;;
71566;SDS011;59403;47.456;19.120;2023-08-31T14:53:47;3.65;;;2.22;;